Terminal Aerodrome Forecast
Issued by NWS

Home | Current Version | Previous Version | Graphics & Text | Print | Product List | Glossary On
Versions: 1 2 3 4 5 6 7 8 9 10 11 12 13 14 15 16 17 18 19 20
000
FTUS43 KGRB 231120
TAFRHI
TAF
KRHI 231120Z 2312/2412 VRB03KT P6SM SCT002 BKN080
      TEMPO 2312/2314 2SM BR BKN002
     FM231500 32005KT P6SM BKN015 BKN100
     FM231800 33007KT P6SM SCT025 BKN050
     FM240000 35006KT P6SM SCT015 BKN035
     FM240400 03003KT 5SM BR BKN015
     FM240800 VRB03KT 2SM BR SCT002 OVC006
      TEMPO 2408/2412 1/2SM FG VV002=

USA.gov is the U.S. government's official web portal to all federal, state and local government web resources and services.